createdAt,value
2017-09-13T00:00:27.538Z,999
2017-09-13T00:01:28.259Z,999
2017-09-13T00:02:29.001Z,999
2017-09-13T00:03:29.741Z,999
2017-09-13T00:04:30.459Z,998
2017-09-13T00:05:31.175Z,998
2017-09-13T00:06:31.897Z,998
2017-09-13T00:07:32.612Z,998
2017-09-13T00:08:33.356Z,998
2017-09-13T00:09:34.070Z,998
2017-09-13T00:10:34.785Z,998
2017-09-13T00:11:35.502Z,998
2017-09-13T00:12:36.226Z,998
2017-09-13T00:13:36.966Z,998
2017-09-13T00:14:37.684Z,998
2017-09-13T00:15:38.421Z,998
2017-09-13T00:16:39.161Z,998
2017-09-13T00:17:39.900Z,998
2017-09-13T00:18:40.619Z,998
2017-09-13T00:19:41.336Z,998
2017-09-13T00:20:42.054Z,998
2017-09-13T00:22:58.372Z,998
2017-09-13T00:23:59.091Z,998
2017-09-13T00:24:59.809Z,998
2017-09-13T00:26:00.524Z,998
2017-09-13T00:27:01.240Z,998
2017-09-13T00:28:01.960Z,998
2017-09-13T00:29:02.692Z,998
2017-09-13T00:30:03.429Z,998
2017-09-13T00:31:04.147Z,998
2017-09-13T00:32:04.863Z,998
2017-09-13T00:33:05.579Z,998
2017-09-13T00:34:06.294Z,998
2017-09-13T00:35:07.009Z,997
2017-09-13T00:36:07.725Z,998
2017-09-13T00:37:08.443Z,998
2017-09-13T00:38:09.160Z,998
2017-09-13T00:39:09.875Z,998
2017-09-13T00:40:10.587Z,997
2017-09-13T00:41:11.302Z,997
2017-09-13T00:42:12.016Z,997
2017-09-13T00:43:12.730Z,997
2017-09-13T00:44:13.447Z,997
2017-09-13T00:45:14.166Z,997
2017-09-13T00:46:14.883Z,997
2017-09-13T00:47:15.597Z,997
2017-09-13T00:48:16.312Z,997
2017-09-13T00:49:17.028Z,997
2017-09-13T00:50:17.746Z,997
2017-09-13T00:51:18.463Z,997
2017-09-13T00:52:19.179Z,997
2017-09-13T00:53:19.895Z,997
2017-09-13T00:54:20.612Z,997
2017-09-13T00:55:21.327Z,997
2017-09-13T00:56:22.040Z,997
2017-09-13T00:57:22.756Z,997
2017-09-13T00:58:23.471Z,997
2017-09-13T00:59:24.187Z,997
2017-09-13T01:00:24.923Z,997
2017-09-13T01:01:25.636Z,997
2017-09-13T01:02:26.352Z,997
2017-09-13T01:03:27.086Z,997
2017-09-13T01:04:27.801Z,997
2017-09-13T01:05:28.518Z,997
2017-09-13T01:06:29.255Z,997
2017-09-13T01:07:29.991Z,997
2017-09-13T01:08:30.703Z,997
2017-09-13T01:09:31.438Z,997
2017-09-13T01:10:32.175Z,997
2017-09-13T01:11:32.891Z,996
2017-09-13T01:12:33.614Z,996
2017-09-13T01:13:34.320Z,996
2017-09-13T01:14:35.037Z,996
2017-09-13T01:15:35.752Z,996
2017-09-13T01:16:36.465Z,996
2017-09-13T01:17:37.202Z,996
2017-09-13T01:18:37.918Z,996
2017-09-13T01:19:38.634Z,996
2017-09-13T01:20:39.351Z,996
2017-09-13T01:21:40.083Z,996
2017-09-13T01:22:40.796Z,996
2017-09-13T01:23:41.514Z,996
2017-09-13T01:24:42.252Z,996
2017-09-13T01:25:42.967Z,996
2017-09-13T01:26:43.707Z,996
2017-09-13T01:27:44.436Z,996
2017-09-13T01:28:45.171Z,996
2017-09-13T01:29:45.886Z,996
2017-09-13T01:30:46.602Z,996
2017-09-13T01:31:47.317Z,996
2017-09-13T01:32:48.052Z,996
2017-09-13T01:33:48.792Z,996
2017-09-13T01:34:49.507Z,996
2017-09-13T01:35:50.222Z,996
2017-09-13T01:36:50.937Z,996
2017-09-13T01:37:51.655Z,996
2017-09-13T01:38:52.370Z,996
2017-09-13T01:39:53.085Z,996
2017-09-13T01:40:53.818Z,996
2017-09-13T01:41:54.537Z,996
2017-09-13T01:42:55.253Z,996
2017-09-13T01:43:55.967Z,996
2017-09-13T01:44:56.704Z,996
2017-09-13T01:45:57.421Z,996
2017-09-13T01:46:58.138Z,996
2017-09-13T01:47:58.851Z,996
2017-09-13T01:48:59.566Z,996
2017-09-13T01:50:00.285Z,996
2017-09-13T01:51:01.000Z,996
2017-09-13T01:52:01.713Z,996
2017-09-13T01:53:02.431Z,996
2017-09-13T01:54:03.147Z,996
2017-09-13T01:55:03.862Z,996
2017-09-13T01:56:04.596Z,996
2017-09-13T01:57:05.312Z,996
2017-09-13T01:58:06.047Z,996
2017-09-13T01:59:06.762Z,996
2017-09-13T02:00:07.479Z,995
2017-09-13T02:01:08.218Z,995
2017-09-13T02:02:08.955Z,995
2017-09-13T02:03:09.670Z,995
2017-09-13T02:04:10.385Z,995
2017-09-13T02:05:11.097Z,995
2017-09-13T02:06:11.816Z,995
2017-09-13T02:07:12.552Z,995
2017-09-13T02:08:13.289Z,995
2017-09-13T02:09:14.005Z,995
2017-09-13T02:10:14.724Z,995
2017-09-13T02:11:15.461Z,995
2017-09-13T02:12:16.177Z,995
2017-09-13T02:13:16.894Z,995
2017-09-13T02:14:17.610Z,995
2017-09-13T02:15:18.327Z,995
2017-09-13T02:16:19.043Z,995
2017-09-13T02:17:19.761Z,995
2017-09-13T02:18:20.477Z,995
2017-09-13T02:19:21.214Z,995
2017-09-13T02:20:21.932Z,995
2017-09-13T02:21:22.646Z,995
2017-09-13T02:22:23.426Z,995
2017-09-13T02:23:24.101Z,995
2017-09-13T02:24:24.817Z,995
2017-09-13T02:25:25.534Z,995
2017-09-13T02:26:26.273Z,994
2017-09-13T02:27:26.988Z,994
2017-09-13T02:28:27.705Z,994
2017-09-13T02:29:28.424Z,994
2017-09-13T02:30:29.138Z,994
2017-09-13T02:31:29.854Z,994
2017-09-13T02:32:30.571Z,994
2017-09-13T02:33:31.307Z,994
2017-09-13T02:34:32.025Z,994
2017-09-13T02:35:32.739Z,994
2017-09-13T02:36:33.455Z,994
2017-09-13T02:37:34.194Z,994
2017-09-13T02:38:34.932Z,994
2017-09-13T02:39:35.669Z,994
2017-09-13T02:40:36.385Z,994
2017-09-13T02:41:37.102Z,994
2017-09-13T02:42:37.819Z,994
2017-09-13T02:43:38.534Z,994
2017-09-13T02:44:39.253Z,994
2017-09-13T02:45:39.968Z,994
2017-09-13T02:46:40.691Z,994
2017-09-13T02:47:41.401Z,994
2017-09-13T02:48:42.116Z,993
2017-09-13T02:49:42.833Z,993
2017-09-13T02:50:43.550Z,994
2017-09-13T02:51:44.264Z,993
2017-09-13T02:52:44.980Z,993
2017-09-13T02:53:45.694Z,993
2017-09-13T02:54:46.411Z,993
2017-09-13T02:55:47.130Z,993
2017-09-13T02:56:47.846Z,993
2017-09-13T02:57:48.587Z,993
2017-09-13T02:58:49.297Z,993
2017-09-13T02:59:50.031Z,993
2017-09-13T03:00:50.752Z,993
2017-09-13T03:01:51.464Z,993
2017-09-13T03:02:52.181Z,993
2017-09-13T03:03:52.899Z,993
2017-09-13T03:04:53.615Z,993
2017-09-13T03:05:54.331Z,993
2017-09-13T03:06:55.066Z,993
2017-09-13T03:07:55.784Z,993
2017-09-13T03:08:56.501Z,993
2017-09-13T03:09:57.219Z,993
2017-09-13T03:10:57.935Z,993
2017-09-13T03:11:58.650Z,993
2017-09-13T03:12:59.368Z,993
2017-09-13T03:14:00.084Z,993
2017-09-13T03:15:00.804Z,993
2017-09-13T03:16:01.524Z,993
2017-09-13T03:17:02.255Z,992
2017-09-13T03:18:02.972Z,993
2017-09-13T03:19:03.708Z,993
2017-09-13T03:20:04.422Z,993
2017-09-13T03:21:05.138Z,992
2017-09-13T03:22:05.876Z,992
2017-09-13T03:23:06.592Z,992
2017-09-13T03:24:07.307Z,992
2017-09-13T03:25:08.026Z,992
2017-09-13T03:26:08.740Z,992
2017-09-13T03:27:09.456Z,992
2017-09-13T03:28:10.173Z,992
2017-09-13T03:29:10.888Z,992
2017-09-13T03:30:11.604Z,992
2017-09-13T03:31:12.320Z,992
2017-09-13T03:32:13.036Z,992
2017-09-13T03:33:13.767Z,992
2017-09-13T03:34:14.486Z,992
2017-09-13T03:35:15.221Z,992
2017-09-13T03:36:15.939Z,992
2017-09-13T03:37:16.656Z,992
2017-09-13T03:38:17.370Z,992
2017-09-13T03:39:18.088Z,992
2017-09-13T03:40:18.800Z,992
2017-09-13T03:41:19.516Z,992
2017-09-13T03:42:20.232Z,992
2017-09-13T03:43:20.972Z,992
2017-09-13T03:44:21.709Z,992
2017-09-13T03:45:22.423Z,992
2017-09-13T03:46:23.158Z,992
2017-09-13T03:47:23.875Z,992
2017-09-13T03:48:24.591Z,992
2017-09-13T03:49:25.305Z,992
2017-09-13T03:50:26.023Z,991
2017-09-13T03:51:26.736Z,991
2017-09-13T03:52:27.454Z,991
2017-09-13T03:53:28.170Z,991
2017-09-13T03:54:28.888Z,991
2017-09-13T03:55:29.602Z,991
2017-09-13T03:56:30.319Z,991
2017-09-13T03:57:31.033Z,991
2017-09-13T03:58:31.752Z,991
2017-09-13T03:59:32.466Z,991
2017-09-13T04:00:33.203Z,991
2017-09-13T04:01:33.941Z,991
2017-09-13T04:02:34.656Z,991
2017-09-13T04:03:35.393Z,991
2017-09-13T04:04:36.107Z,991
2017-09-13T04:05:36.823Z,991
2017-09-13T04:06:37.541Z,991
2017-09-13T04:07:38.256Z,991
2017-09-13T04:08:38.973Z,991
2017-09-13T04:09:39.690Z,991
2017-09-13T04:10:40.406Z,991
2017-09-13T04:11:41.122Z,991
2017-09-13T04:12:41.837Z,991
2017-09-13T04:13:42.554Z,991
2017-09-13T04:14:43.288Z,991
2017-09-13T04:15:44.005Z,991
2017-09-13T04:16:44.720Z,991
2017-09-13T04:17:45.457Z,991
2017-09-13T04:18:46.173Z,991
2017-09-13T04:19:46.885Z,991
2017-09-13T04:20:47.621Z,991
2017-09-13T04:21:48.338Z,991
2017-09-13T04:22:49.055Z,991
2017-09-13T04:23:49.774Z,991
2017-09-13T04:24:50.490Z,991
2017-09-13T04:25:51.206Z,991
2017-09-13T04:26:51.921Z,990
2017-09-13T04:27:52.647Z,991
2017-09-13T04:28:53.376Z,990
2017-09-13T04:29:54.090Z,990
2017-09-13T04:30:54.807Z,990
2017-09-13T04:31:55.519Z,990
2017-09-13T04:32:56.254Z,990
2017-09-13T04:33:56.972Z,990
2017-09-13T04:34:57.685Z,990
2017-09-13T04:35:58.403Z,990
2017-09-13T04:36:59.120Z,990
2017-09-13T04:37:59.837Z,990
2017-09-13T04:39:00.554Z,990
2017-09-13T04:40:01.266Z,990
2017-09-13T04:41:01.983Z,990
2017-09-13T04:42:02.699Z,990
2017-09-13T04:43:03.436Z,990
2017-09-13T04:44:04.150Z,990
2017-09-13T04:45:04.866Z,990
2017-09-13T04:46:05.579Z,990
2017-09-13T04:47:06.296Z,990
2017-09-13T04:48:07.012Z,990
2017-09-13T04:49:07.746Z,990
2017-09-13T04:50:08.462Z,990
2017-09-13T04:51:09.180Z,990
2017-09-13T04:52:09.914Z,990
2017-09-13T04:53:10.628Z,990
2017-09-13T04:54:11.348Z,990
2017-09-13T04:55:12.082Z,990
2017-09-13T04:56:12.818Z,990
2017-09-13T04:57:13.535Z,990
2017-09-13T04:58:14.252Z,990
2017-09-13T04:59:14.970Z,990
2017-09-13T05:00:15.686Z,990
2017-09-13T05:01:16.401Z,990
2017-09-13T05:02:17.117Z,990
2017-09-13T05:03:17.834Z,990
2017-09-13T05:04:18.549Z,990
2017-09-13T05:05:19.265Z,990
2017-09-13T05:06:20.001Z,990
2017-09-13T05:07:20.718Z,990
2017-09-13T05:08:21.433Z,990
2017-09-13T05:09:22.169Z,990
2017-09-13T05:10:22.889Z,990
2017-09-13T05:11:23.602Z,990
2017-09-13T05:12:24.323Z,990
2017-09-13T05:13:25.040Z,990
2017-09-13T05:14:25.776Z,990
2017-09-13T05:15:26.513Z,990
2017-09-13T05:16:27.253Z,990
2017-09-13T05:17:27.970Z,990
2017-09-13T05:18:28.688Z,990
2017-09-13T05:19:29.403Z,990
2017-09-13T05:20:30.126Z,990
2017-09-13T05:21:30.840Z,990
2017-09-13T05:22:31.573Z,990
2017-09-13T05:23:32.293Z,990
2017-09-13T05:24:33.009Z,990
2017-09-13T05:25:33.746Z,990
2017-09-13T05:26:34.467Z,989
2017-09-13T05:27:35.183Z,989
2017-09-13T05:28:35.903Z,989
2017-09-13T05:29:36.625Z,990
2017-09-13T05:30:37.339Z,989
2017-09-13T05:31:38.058Z,990
2017-09-13T05:32:38.777Z,989
2017-09-13T05:33:39.494Z,990
2017-09-13T05:34:40.212Z,989
2017-09-13T05:35:40.929Z,989
2017-09-13T05:36:41.647Z,989
2017-09-13T05:37:42.366Z,989
2017-09-13T05:38:43.105Z,989
2017-09-13T05:39:43.822Z,989
2017-09-13T05:40:44.541Z,989
2017-09-13T05:41:45.258Z,989
2017-09-13T05:42:45.980Z,989
2017-09-13T05:43:46.717Z,989
2017-09-13T05:44:47.435Z,989
2017-09-13T05:45:48.175Z,989
2017-09-13T05:46:48.892Z,989
2017-09-13T05:47:49.613Z,989
2017-09-13T05:48:50.329Z,989
2017-09-13T05:49:51.066Z,989
2017-09-13T05:50:51.788Z,989
2017-09-13T05:51:52.531Z,989
2017-09-13T05:52:53.246Z,989
2017-09-13T05:53:53.964Z,989
2017-09-13T05:54:54.686Z,989
2017-09-13T05:55:55.406Z,989
2017-09-13T05:56:56.131Z,989
2017-09-13T05:57:56.845Z,989
2017-09-13T05:58:57.566Z,989
2017-09-13T05:59:58.286Z,989
2017-09-13T06:00:59.004Z,989
2017-09-13T06:01:59.725Z,989
2017-09-13T06:03:00.444Z,989
2017-09-13T06:04:01.159Z,989
2017-09-13T06:05:01.879Z,989
2017-09-13T06:06:02.600Z,989
2017-09-13T06:07:03.318Z,989
2017-09-13T06:08:04.036Z,989
2017-09-13T06:09:04.759Z,989
2017-09-13T06:10:05.479Z,989
2017-09-13T06:11:06.199Z,989
2017-09-13T06:12:06.919Z,989
2017-09-13T06:13:07.639Z,989
2017-09-13T06:14:08.381Z,989
2017-09-13T06:15:09.121Z,989
2017-09-13T06:16:09.862Z,989
2017-09-13T06:17:10.602Z,989
2017-09-13T06:18:11.321Z,989
2017-09-13T06:19:12.044Z,989
2017-09-13T06:20:12.759Z,989
2017-09-13T06:21:13.480Z,989
2017-09-13T06:22:14.201Z,989
2017-09-13T06:23:14.920Z,989
2017-09-13T06:24:15.638Z,989
2017-09-13T06:25:16.364Z,989
2017-09-13T06:26:17.083Z,989
2017-09-13T06:27:17.805Z,989
2017-09-13T06:28:18.525Z,989
2017-09-13T06:29:19.246Z,989
2017-09-13T06:30:19.966Z,989
2017-09-13T06:31:20.708Z,989
2017-09-13T06:32:21.430Z,989
2017-09-13T06:33:22.149Z,988
2017-09-13T06:34:22.869Z,989
2017-09-13T06:35:23.591Z,989
2017-09-13T06:36:24.309Z,989
2017-09-13T06:37:25.026Z,989
2017-09-13T06:38:25.745Z,989
2017-09-13T06:39:26.464Z,989
2017-09-13T06:40:27.182Z,989
2017-09-13T06:41:27.902Z,989
2017-09-13T06:42:28.619Z,989
2017-09-13T06:43:29.343Z,989
2017-09-13T06:44:30.057Z,989
2017-09-13T06:45:30.795Z,989
2017-09-13T06:46:31.536Z,989
2017-09-13T06:47:32.256Z,989
2017-09-13T06:48:32.976Z,989
2017-09-13T06:49:33.715Z,989
2017-09-13T06:50:34.436Z,989
2017-09-13T06:51:35.157Z,989
2017-09-13T06:52:35.876Z,989
2017-09-13T06:53:36.598Z,989
2017-09-13T06:54:37.321Z,989
2017-09-13T06:55:38.060Z,989
2017-09-13T06:56:38.783Z,989
2017-09-13T06:57:39.503Z,989
2017-09-13T06:58:40.225Z,989
2017-09-13T06:59:40.950Z,988
2017-09-13T07:00:41.675Z,989
2017-09-13T07:01:42.397Z,988
2017-09-13T07:02:43.142Z,988
2017-09-13T07:03:43.865Z,988
2017-09-13T07:04:44.590Z,988
2017-09-13T07:05:45.315Z,988
2017-09-13T07:06:46.041Z,988
2017-09-13T07:07:46.764Z,988
2017-09-13T07:08:47.508Z,988
2017-09-13T07:09:48.235Z,988
2017-09-13T07:10:48.958Z,988
2017-09-13T07:11:49.683Z,988
2017-09-13T07:12:50.408Z,988
2017-09-13T07:13:51.137Z,988
2017-09-13T07:14:51.880Z,988
2017-09-13T07:15:52.611Z,988
2017-09-13T07:16:53.360Z,988
2017-09-13T07:17:54.086Z,988
2017-09-13T07:18:54.812Z,988
2017-09-13T07:19:55.537Z,988
2017-09-13T07:20:56.263Z,988
2017-09-13T07:21:56.992Z,988
2017-09-13T07:22:57.718Z,988
2017-09-13T07:23:58.446Z,988
2017-09-13T07:24:59.175Z,988
2017-09-13T07:25:59.924Z,988
2017-09-13T07:27:00.652Z,988
2017-09-13T07:28:01.402Z,988
2017-09-13T07:29:02.133Z,988
2017-09-13T07:30:02.859Z,988
2017-09-13T07:31:03.584Z,988
2017-09-13T07:32:04.332Z,988
2017-09-13T07:33:05.058Z,988
2017-09-13T07:34:05.804Z,988
2017-09-13T07:35:06.532Z,988
2017-09-13T07:36:07.262Z,988
2017-09-13T07:37:07.991Z,988
2017-09-13T07:38:08.717Z,988
2017-09-13T07:39:09.462Z,988
2017-09-13T07:40:10.187Z,988
2017-09-13T07:41:10.912Z,988
2017-09-13T07:42:11.642Z,988
2017-09-13T07:43:12.368Z,988
2017-09-13T07:44:13.115Z,988
2017-09-13T07:45:13.867Z,988
2017-09-13T07:46:14.562Z,988
2017-09-13T07:47:15.286Z,988
2017-09-13T07:48:16.012Z,988
2017-09-13T07:49:16.758Z,988
2017-09-13T07:50:17.483Z,988
2017-09-13T07:51:18.205Z,988
2017-09-13T07:52:18.927Z,988
2017-09-13T07:53:19.653Z,988
2017-09-13T07:54:20.376Z,988
2017-09-13T07:55:21.098Z,988
2017-09-13T07:56:21.818Z,988
2017-09-13T07:57:22.545Z,988
2017-09-13T07:58:23.289Z,988
2017-09-13T07:59:24.013Z,988
2017-09-13T08:00:24.733Z,988
2017-09-13T08:01:25.458Z,988
2017-09-13T08:02:26.202Z,988
2017-09-13T08:03:26.924Z,988
2017-09-13T08:04:27.670Z,988
2017-09-13T08:05:28.413Z,988
2017-09-13T08:06:29.135Z,988
2017-09-13T08:07:29.857Z,988
2017-09-13T08:08:30.584Z,988
2017-09-13T08:09:31.309Z,988
2017-09-13T08:10:32.031Z,988
2017-09-13T08:11:32.760Z,988
2017-09-13T08:12:33.503Z,988
2017-09-13T08:13:34.231Z,988
2017-09-13T08:14:34.974Z,988
2017-09-13T08:15:35.697Z,988
2017-09-13T08:16:36.445Z,988
2017-09-13T08:17:37.171Z,988
2017-09-13T08:18:37.891Z,988
2017-09-13T08:19:38.615Z,988
2017-09-13T08:20:39.340Z,988
2017-09-13T08:21:40.067Z,988
2017-09-13T08:22:40.790Z,988
2017-09-13T08:23:41.531Z,988
2017-09-13T08:24:42.259Z,988
2017-09-13T08:25:42.985Z,988
2017-09-13T08:26:43.709Z,988
2017-09-13T08:27:44.456Z,988
2017-09-13T08:28:45.200Z,988
2017-09-13T08:29:45.925Z,988
2017-09-13T08:30:46.651Z,988
2017-09-13T08:31:47.397Z,988
2017-09-13T08:32:48.120Z,988
2017-09-13T08:33:48.860Z,988
2017-09-13T08:34:49.584Z,988
2017-09-13T08:35:50.308Z,988
2017-09-13T08:36:51.032Z,988
2017-09-13T08:37:51.753Z,989
2017-09-13T08:38:52.480Z,988
2017-09-13T08:39:53.228Z,988
2017-09-13T08:40:53.975Z,988
2017-09-13T08:41:54.701Z,988
2017-09-13T08:42:55.427Z,988
2017-09-13T08:43:56.151Z,988
2017-09-13T08:44:56.876Z,988
2017-09-13T08:45:57.601Z,988
2017-09-13T08:46:58.324Z,988
2017-09-13T08:47:59.068Z,988
2017-09-13T08:48:59.794Z,988
2017-09-13T08:50:00.521Z,988
2017-09-13T08:51:01.246Z,989
2017-09-13T08:52:01.971Z,988
2017-09-13T08:53:02.699Z,988
2017-09-13T08:54:03.425Z,988
2017-09-13T08:55:04.148Z,988
2017-09-13T08:56:04.875Z,988
2017-09-13T08:57:05.601Z,988
2017-09-13T08:58:06.328Z,988
2017-09-13T08:59:07.050Z,988
2017-09-13T09:00:07.769Z,988
2017-09-13T09:01:08.493Z,988
2017-09-13T09:02:09.217Z,988
2017-09-13T09:03:09.941Z,988
2017-09-13T09:04:10.667Z,988
2017-09-13T09:05:11.388Z,988
2017-09-13T09:06:12.111Z,988
2017-09-13T09:07:12.854Z,989
2017-09-13T09:08:13.597Z,989
2017-09-13T09:09:14.320Z,989
2017-09-13T09:10:15.068Z,989
2017-09-13T09:11:15.789Z,989
2017-09-13T09:12:16.517Z,989
2017-09-13T09:13:17.240Z,989
2017-09-13T09:14:17.963Z,989
2017-09-13T09:15:18.710Z,989
2017-09-13T09:16:19.434Z,989
2017-09-13T09:17:20.158Z,989
2017-09-13T09:18:20.887Z,989
2017-09-13T09:19:21.625Z,989
2017-09-13T09:20:22.368Z,989
2017-09-13T09:21:23.093Z,989
2017-09-13T09:22:23.817Z,989
2017-09-13T09:23:24.539Z,989
2017-09-13T09:24:25.260Z,989
2017-09-13T09:25:26.002Z,989
2017-09-13T09:26:26.747Z,989
2017-09-13T09:27:27.470Z,989
2017-09-13T09:28:28.191Z,990
2017-09-13T09:29:28.923Z,989
2017-09-13T09:30:29.663Z,989
2017-09-13T09:31:30.386Z,989
2017-09-13T09:32:31.111Z,989
2017-09-13T09:33:31.829Z,990
2017-09-13T09:34:32.550Z,990
2017-09-13T09:35:33.277Z,989
2017-09-13T09:36:34.023Z,989
2017-09-13T09:37:34.743Z,990
2017-09-13T09:38:35.471Z,990
2017-09-13T09:39:36.190Z,990
2017-09-13T09:40:36.913Z,990
2017-09-13T09:41:37.637Z,990
2017-09-13T09:42:38.366Z,990
2017-09-13T09:43:39.089Z,990
2017-09-13T09:44:39.819Z,990
2017-09-13T09:45:40.545Z,990
2017-09-13T09:46:41.275Z,990
2017-09-13T09:47:42.005Z,990
2017-09-13T09:48:42.730Z,990
2017-09-13T09:49:43.457Z,990
2017-09-13T09:50:44.185Z,990
2017-09-13T09:51:44.911Z,990
2017-09-13T09:52:45.637Z,990
2017-09-13T09:53:46.361Z,990
2017-09-13T09:54:47.108Z,990
2017-09-13T09:55:47.831Z,990
2017-09-13T09:56:48.558Z,990
2017-09-13T09:57:49.304Z,990
2017-09-13T09:58:50.037Z,990
2017-09-13T09:59:50.754Z,990
2017-09-13T10:00:51.479Z,990
2017-09-13T10:01:52.203Z,990
2017-09-13T10:02:52.931Z,990
2017-09-13T10:03:53.658Z,990
2017-09-13T10:04:54.388Z,990
2017-09-13T10:05:55.121Z,990
2017-09-13T10:06:55.850Z,990
2017-09-13T10:07:56.580Z,990
2017-09-13T10:08:57.315Z,990
2017-09-13T10:09:58.047Z,990
2017-09-13T10:10:58.779Z,990
2017-09-13T10:11:59.512Z,990
2017-09-13T10:13:00.242Z,990
2017-09-13T10:14:00.976Z,990
2017-09-13T10:15:01.706Z,989
2017-09-13T10:16:02.457Z,990
2017-09-13T10:17:03.184Z,990
2017-09-13T10:18:03.915Z,990
2017-09-13T10:19:04.667Z,990
2017-09-13T10:20:05.414Z,990
2017-09-13T10:21:06.143Z,990
2017-09-13T10:22:06.897Z,990
2017-09-13T10:23:07.629Z,990
2017-09-13T10:24:08.384Z,990
2017-09-13T10:25:09.135Z,990
2017-09-13T10:26:09.873Z,990
2017-09-13T10:27:10.625Z,990
2017-09-13T10:28:11.358Z,990
2017-09-13T10:29:12.090Z,990
2017-09-13T10:30:12.826Z,990
2017-09-13T10:31:13.555Z,990
2017-09-13T10:32:14.283Z,990
2017-09-13T10:33:15.034Z,990
2017-09-13T10:34:15.766Z,989
2017-09-13T10:35:16.498Z,990
2017-09-13T10:36:17.227Z,990
2017-09-13T10:37:17.957Z,990
2017-09-13T10:38:18.690Z,990
2017-09-13T10:39:19.422Z,990
2017-09-13T10:40:20.175Z,990
2017-09-13T10:41:20.908Z,990
2017-09-13T10:42:21.641Z,990
2017-09-13T10:43:22.395Z,990
2017-09-13T10:44:23.126Z,990
2017-09-13T10:45:23.880Z,990
2017-09-13T10:46:24.613Z,990
2017-09-13T10:47:25.346Z,990
2017-09-13T10:48:26.079Z,990
2017-09-13T10:49:26.812Z,990
2017-09-13T10:50:27.547Z,990
2017-09-13T10:51:28.278Z,990
2017-09-13T10:52:29.009Z,990
2017-09-13T10:53:29.741Z,990
2017-09-13T10:54:30.469Z,990
2017-09-13T10:55:31.204Z,990
2017-09-13T10:56:31.953Z,990
2017-09-13T10:57:32.684Z,990
2017-09-13T10:58:33.416Z,990
2017-09-13T10:59:34.149Z,990
2017-09-13T11:00:34.880Z,990
2017-09-13T11:01:35.612Z,990
2017-09-13T11:02:36.345Z,990
2017-09-13T11:03:37.080Z,991
2017-09-13T11:04:37.816Z,990
2017-09-13T11:05:38.551Z,991
2017-09-13T11:06:39.287Z,990
2017-09-13T11:07:40.024Z,990
2017-09-13T11:08:40.780Z,990
2017-09-13T11:09:41.519Z,990
2017-09-13T11:10:42.257Z,990
2017-09-13T11:11:42.997Z,990
2017-09-13T11:12:43.762Z,990
2017-09-13T11:13:44.502Z,991
2017-09-13T11:14:45.245Z,990
2017-09-13T11:15:46.009Z,990
2017-09-13T11:16:46.749Z,991
2017-09-13T11:17:47.494Z,990
2017-09-13T11:18:48.258Z,991
2017-09-13T11:19:49.000Z,991
2017-09-13T11:20:49.740Z,990
2017-09-13T11:21:50.478Z,991
2017-09-13T11:22:51.237Z,991
2017-09-13T11:23:51.979Z,991
2017-09-13T11:24:52.716Z,991
2017-09-13T11:25:53.475Z,991
2017-09-13T11:26:54.212Z,991
2017-09-13T11:27:54.952Z,991
2017-09-13T11:28:55.695Z,991
2017-09-13T11:29:56.430Z,991
2017-09-13T11:30:57.169Z,991
2017-09-13T11:31:57.912Z,991
2017-09-13T11:32:58.648Z,991
2017-09-13T11:33:59.393Z,991
2017-09-13T11:35:00.148Z,991
2017-09-13T11:36:00.911Z,991
2017-09-13T11:37:01.649Z,991
2017-09-13T11:38:02.388Z,991
2017-09-13T11:39:03.126Z,991
2017-09-13T11:40:03.867Z,991
2017-09-13T11:41:04.604Z,991
2017-09-13T11:42:05.362Z,991
2017-09-13T11:43:06.098Z,991
2017-09-13T11:44:06.857Z,991
2017-09-13T11:45:07.617Z,991
2017-09-13T11:46:08.373Z,991
2017-09-13T11:47:09.112Z,991
2017-09-13T11:48:09.855Z,991
2017-09-13T11:49:10.612Z,991
2017-09-13T11:50:11.351Z,991
2017-09-13T11:51:12.090Z,992
2017-09-13T11:52:12.832Z,991
2017-09-13T11:53:13.572Z,991
2017-09-13T11:54:14.310Z,991
2017-09-13T11:55:15.045Z,991
2017-09-13T11:56:15.792Z,991
2017-09-13T11:57:16.531Z,991
2017-09-13T11:58:17.272Z,991
2017-09-13T11:59:18.013Z,991
2017-09-13T12:00:18.772Z,991
2017-09-13T12:01:19.528Z,991
2017-09-13T12:02:20.269Z,991
2017-09-13T12:03:21.005Z,991
2017-09-13T12:04:21.766Z,992
2017-09-13T12:05:22.510Z,991
2017-09-13T12:06:23.247Z,991
2017-09-13T12:07:24.006Z,992
2017-09-13T12:08:24.748Z,992
2017-09-13T12:09:25.484Z,992
2017-09-13T12:10:26.224Z,992
2017-09-13T12:11:26.983Z,992
2017-09-13T12:12:27.722Z,992
2017-09-13T12:13:28.485Z,992
2017-09-13T12:14:29.227Z,991
2017-09-13T12:15:29.962Z,992
2017-09-13T12:16:30.701Z,991
2017-09-13T12:17:31.441Z,992
2017-09-13T12:18:32.180Z,992
2017-09-13T12:19:32.919Z,992
2017-09-13T12:20:33.663Z,992
2017-09-13T12:21:34.403Z,992
2017-09-13T12:22:35.160Z,992
2017-09-13T12:23:35.901Z,992
2017-09-13T12:24:36.642Z,992
2017-09-13T12:25:37.401Z,992
2017-09-13T12:26:38.138Z,992
2017-09-13T12:27:38.902Z,992
2017-09-13T12:28:39.641Z,992
2017-09-13T12:29:40.380Z,992
2017-09-13T12:30:41.120Z,992
2017-09-13T12:31:41.859Z,992
2017-09-13T12:32:42.598Z,992
2017-09-13T12:33:43.336Z,992
2017-09-13T12:34:44.083Z,992
2017-09-13T12:35:44.818Z,992
2017-09-13T12:36:45.557Z,992
2017-09-13T12:37:46.294Z,992
2017-09-13T12:38:47.051Z,992
2017-09-13T12:39:47.791Z,992
2017-09-13T12:40:48.525Z,992
2017-09-13T12:41:49.282Z,992
2017-09-13T12:42:50.016Z,992
2017-09-13T12:43:50.754Z,992
2017-09-13T12:44:51.495Z,992
2017-09-13T12:45:52.250Z,992
2017-09-13T12:46:52.989Z,992
2017-09-13T12:47:53.724Z,992
2017-09-13T12:48:54.462Z,992
2017-09-13T12:49:55.198Z,992
2017-09-13T12:50:55.933Z,992
2017-09-13T12:51:56.687Z,992
2017-09-13T12:52:57.423Z,992
2017-09-13T12:53:58.157Z,992
2017-09-13T12:54:58.891Z,992
2017-09-13T12:55:59.625Z,992
2017-09-13T12:57:00.358Z,992
2017-09-13T12:58:01.095Z,992
2017-09-13T12:59:01.827Z,992
2017-09-13T13:00:02.585Z,992
2017-09-13T13:01:03.335Z,992
2017-09-13T13:02:04.064Z,992
2017-09-13T13:03:04.796Z,992
2017-09-13T13:04:05.529Z,992
2017-09-13T13:05:06.262Z,992
2017-09-13T13:06:06.995Z,992
2017-09-13T13:07:07.724Z,992
2017-09-13T13:08:08.479Z,992
2017-09-13T13:09:09.231Z,992
2017-09-13T13:10:09.964Z,992
2017-09-13T13:11:10.697Z,992
2017-09-13T13:12:11.430Z,992
2017-09-13T13:13:12.162Z,992
2017-09-13T13:14:12.897Z,992
2017-09-13T13:15:13.627Z,992
2017-09-13T13:16:14.359Z,992
2017-09-13T13:17:15.092Z,992
2017-09-13T13:18:15.824Z,992
2017-09-13T13:19:16.555Z,992
2017-09-13T13:20:17.284Z,992
2017-09-13T13:21:18.013Z,992
2017-09-13T13:22:18.765Z,992
2017-09-13T13:23:19.496Z,992
2017-09-13T13:24:20.256Z,992
2017-09-13T13:25:20.982Z,992
2017-09-13T13:26:21.712Z,992
2017-09-13T13:27:22.468Z,992
2017-09-13T13:28:23.200Z,992
2017-09-13T13:29:23.954Z,992
2017-09-13T13:30:24.688Z,992
2017-09-13T13:31:25.420Z,992
2017-09-13T13:32:26.156Z,992
2017-09-13T13:33:26.889Z,992
2017-09-13T13:34:27.620Z,992
2017-09-13T13:35:28.357Z,992
2017-09-13T13:36:29.093Z,992
2017-09-13T13:37:29.824Z,993
2017-09-13T13:38:30.577Z,992
2017-09-13T13:39:31.314Z,992
2017-09-13T13:40:32.054Z,993
2017-09-13T13:41:32.793Z,992
2017-09-13T13:42:33.535Z,992
2017-09-13T13:43:34.272Z,992
2017-09-13T13:44:35.011Z,993
2017-09-13T13:45:35.750Z,993
2017-09-13T13:46:36.496Z,993
2017-09-13T13:47:37.233Z,992
2017-09-13T13:48:37.973Z,993
2017-09-13T13:49:38.716Z,992
2017-09-13T13:50:39.453Z,992
2017-09-13T13:51:40.192Z,993
2017-09-13T13:52:40.932Z,992
2017-09-13T13:53:41.675Z,993
2017-09-13T13:54:42.412Z,993
2017-09-13T13:55:43.150Z,992
2017-09-13T13:56:43.893Z,992
2017-09-13T13:57:44.631Z,992